createdAt,value
2018-12-19T00:00:24.499Z,100424.45
2018-12-19T00:02:53.920Z,100417.70
2018-12-19T00:05:23.183Z,100419.70
2018-12-19T00:07:52.663Z,100420.11
2018-12-19T00:10:21.989Z,100414.32
2018-12-19T00:12:51.333Z,100409.87
2018-12-19T00:15:20.739Z,100408.20
2018-12-19T00:17:50.136Z,100404.42
2018-12-19T00:20:19.746Z,100404.33
2018-12-19T00:22:49.052Z,100392.87
2018-12-19T00:25:18.421Z,100383.79
2018-12-19T00:27:47.794Z,100376.16
2018-12-19T00:30:16.992Z,100387.33
2018-12-19T00:32:46.232Z,100388.30
2018-12-19T00:35:15.728Z,100391.69
2018-12-19T00:37:44.944Z,100387.99
2018-12-19T00:40:14.281Z,100393.28
2018-12-19T00:42:43.564Z,100391.69
2018-12-19T00:45:12.810Z,100390.70
2018-12-19T00:47:42.318Z,100381.12
2018-12-19T00:50:11.510Z,100381.77
2018-12-19T00:52:40.641Z,100371.55
2018-12-19T00:55:10.132Z,100369.50
2018-12-19T00:57:39.569Z,100366.83
2018-12-19T01:00:09.458Z,100364.86
2018-12-19T01:02:38.667Z,100365.47
2018-12-19T01:05:07.948Z,100368.75
2018-12-19T01:07:37.362Z,100371.38
2018-12-19T01:10:06.768Z,100362.20
2018-12-19T01:12:36.040Z,100364.97
2018-12-19T01:15:05.724Z,100364.77
2018-12-19T01:17:35.153Z,100377.53
2018-12-19T01:20:04.701Z,100379.14
2018-12-19T01:22:34.061Z,100383.63
2018-12-19T01:25:03.307Z,100388.55
2018-12-19T01:27:32.886Z,100386.21
2018-12-19T01:30:02.542Z,100389.25
2018-12-19T01:32:32.104Z,100384.45
2018-12-19T01:35:01.594Z,100386.67
2018-12-19T01:37:30.780Z,100372.95
2018-12-19T01:40:00.219Z,100357.53
2018-12-19T01:42:29.495Z,100356.79
2018-12-19T01:44:58.936Z,100362.31
2018-12-19T01:47:28.196Z,100365.55
2018-12-19T01:49:57.544Z,100379.61
2018-12-19T01:52:26.961Z,100384.77
2018-12-19T01:54:56.126Z,100381.48
2018-12-19T01:57:25.415Z,100378.00
2018-12-19T01:59:54.885Z,100373.73
2018-12-19T02:02:24.329Z,100383.09
2018-12-19T02:04:53.628Z,100380.23
2018-12-19T02:07:23.480Z,100382.63
2018-12-19T02:09:53.666Z,100379.42
2018-12-19T02:12:23.043Z,100381.40
2018-12-19T02:14:52.291Z,100376.25
2018-12-19T02:17:21.542Z,100378.60
2018-12-19T02:19:50.886Z,100374.67
2018-12-19T02:22:20.419Z,100371.66
2018-12-19T02:24:49.507Z,100368.81
2018-12-19T02:27:18.699Z,100364.29
2018-12-19T02:29:47.928Z,100348.64
2018-12-19T02:32:17.048Z,100354.03
2018-12-19T02:34:46.336Z,100361.19
2018-12-19T02:37:15.681Z,100353.34
2018-12-19T02:39:44.830Z,100362.70
2018-12-19T02:42:14.074Z,100361.38
2018-12-19T02:44:43.364Z,100362.95
2018-12-19T02:47:12.807Z,100358.81
2018-12-19T02:49:42.187Z,100358.86
2018-12-19T02:52:11.615Z,100354.69
2018-12-19T02:54:40.968Z,100354.59
2018-12-19T02:57:10.484Z,100352.27
2018-12-19T02:59:40.070Z,100348.86
2018-12-19T03:02:09.460Z,100335.69
2018-12-19T03:04:38.634Z,100331.08
2018-12-19T03:07:08.381Z,100336.30
2018-12-19T03:09:42.878Z,100337.23
2018-12-19T03:12:09.133Z,100339.13
2018-12-19T03:14:38.363Z,100330.53
2018-12-19T03:17:07.617Z,100327.12
2018-12-19T03:19:37.057Z,100313.53
2018-12-19T03:22:06.355Z,100331.30
2018-12-19T03:24:35.824Z,100330.30
2018-12-19T03:27:05.196Z,100327.38
2018-12-19T03:29:34.421Z,100331.02
2018-12-19T03:32:03.560Z,100323.33
2018-12-19T03:34:32.722Z,100317.33
2018-12-19T03:37:02.058Z,100316.67
2018-12-19T03:39:31.426Z,100324.48
2018-12-19T03:42:00.752Z,100319.18
2018-12-19T03:44:30.025Z,100316.20
2018-12-19T03:46:59.516Z,100317.92
2018-12-19T03:49:29.139Z,100315.00
2018-12-19T03:51:58.632Z,100314.52
2018-12-19T03:54:28.167Z,100308.98
2018-12-19T03:56:58.202Z,100319.05
2018-12-19T03:59:27.381Z,100308.33
2018-12-19T04:01:56.633Z,100303.14
2018-12-19T04:04:26.098Z,100303.52
2018-12-19T04:06:55.377Z,100318.64
2018-12-19T04:09:24.502Z,100307.84
2018-12-19T04:11:53.753Z,100319.88
2018-12-19T04:14:22.905Z,100315.70
2018-12-19T04:16:52.404Z,100321.08
2018-12-19T04:19:21.949Z,100309.25
2018-12-19T04:21:51.293Z,100324.21
2018-12-19T04:24:20.600Z,100303.77
2018-12-19T04:26:49.825Z,100311.48
2018-12-19T04:29:19.315Z,100318.06
2018-12-19T04:31:48.592Z,100316.66
2018-12-19T04:34:17.713Z,100313.67
2018-12-19T04:36:46.911Z,100334.12
2018-12-19T04:39:16.228Z,100312.16
2018-12-19T04:41:45.448Z,100304.59
2018-12-19T04:44:14.860Z,100319.88
2018-12-19T04:46:44.141Z,100320.69
2018-12-19T04:49:13.391Z,100325.09
2018-12-19T04:51:42.600Z,100322.09
2018-12-19T04:54:12.033Z,100315.30
2018-12-19T04:56:41.253Z,100304.66
2018-12-19T04:59:10.381Z,100312.42
2018-12-19T05:01:39.663Z,100307.27
2018-12-19T05:04:08.959Z,100308.25
2018-12-19T05:06:38.106Z,100315.70
2018-12-19T05:09:08.871Z,100311.50
2018-12-19T05:11:38.462Z,100318.64
2018-12-19T05:14:07.669Z,100313.69
2018-12-19T05:16:36.997Z,100320.52
2018-12-19T05:19:06.497Z,100312.27
2018-12-19T05:21:35.795Z,100306.55
2018-12-19T05:24:05.148Z,100305.59
2018-12-19T05:26:34.534Z,100297.97
2018-12-19T05:29:03.801Z,100296.67
2018-12-19T05:31:32.927Z,100301.36
2018-12-19T05:34:02.014Z,100306.53
2018-12-19T05:36:31.327Z,100296.96
2018-12-19T05:39:00.557Z,100296.45
2018-12-19T05:41:29.775Z,100300.53
2018-12-19T05:43:58.932Z,100301.47
2018-12-19T05:46:28.143Z,100297.19
2018-12-19T05:48:57.650Z,100291.20
2018-12-19T05:51:27.008Z,100288.31
2018-12-19T05:53:56.297Z,100292.24
2018-12-19T05:56:25.620Z,100299.52
2018-12-19T05:58:55.045Z,100301.66
2018-12-19T06:01:24.462Z,100307.21
2018-12-19T06:03:53.712Z,100309.46
2018-12-19T06:06:22.852Z,100312.45
2018-12-19T06:08:52.231Z,100310.55
2018-12-19T06:11:21.335Z,100305.09
2018-12-19T06:13:50.647Z,100295.38
2018-12-19T06:16:20.045Z,100294.17
2018-12-19T06:18:49.320Z,100297.23
2018-12-19T06:21:18.556Z,100294.25
2018-12-19T06:23:47.806Z,100300.56
2018-12-19T06:26:17.079Z,100306.53
2018-12-19T06:28:46.234Z,100304.16
2018-12-19T06:31:15.435Z,100301.02
2018-12-19T06:33:44.871Z,100302.45
2018-12-19T06:36:14.635Z,100314.60
2018-12-19T06:38:43.926Z,100310.30
2018-12-19T06:41:13.251Z,100319.22
2018-12-19T06:43:42.308Z,100320.33
2018-12-19T06:46:11.580Z,100317.23
2018-12-19T06:48:40.796Z,100319.86
2018-12-19T06:51:10.241Z,100324.30
2018-12-19T06:53:39.533Z,100327.66
2018-12-19T06:56:09.091Z,100323.58
2018-12-19T06:58:38.546Z,100319.69
2018-12-19T07:01:07.859Z,100325.23
2018-12-19T07:03:37.056Z,100331.91
2018-12-19T07:06:06.470Z,100330.01
2018-12-19T07:08:35.732Z,100340.94
2018-12-19T07:11:04.968Z,100335.92
2018-12-19T07:13:34.207Z,100328.81
2018-12-19T07:16:03.539Z,100325.91
2018-12-19T07:18:32.766Z,100322.80
2018-12-19T07:21:02.537Z,100322.56
2018-12-19T07:23:31.892Z,100319.76
2018-12-19T07:26:01.331Z,100316.93
2018-12-19T07:28:30.772Z,100314.06
2018-12-19T07:31:00.108Z,100307.05
2018-12-19T07:33:29.274Z,100305.69
2018-12-19T07:35:58.712Z,100316.97
2018-12-19T07:38:27.992Z,100327.84
2018-12-19T07:40:57.395Z,100325.28
2018-12-19T07:43:26.731Z,100326.91
2018-12-19T07:45:56.081Z,100323.55
2018-12-19T07:48:25.663Z,100325.52
2018-12-19T07:50:54.932Z,100332.34
2018-12-19T07:53:24.179Z,100336.86
2018-12-19T07:55:53.742Z,100334.30
2018-12-19T07:58:23.164Z,100339.81
2018-12-19T08:00:52.436Z,100343.77
2018-12-19T08:03:21.775Z,100341.42
2018-12-19T08:05:50.993Z,100346.72
2018-12-19T08:08:20.219Z,100339.89
2018-12-19T08:10:52.335Z,100341.26
2018-12-19T08:13:20.860Z,100342.32
2018-12-19T08:15:50.208Z,100346.39
2018-12-19T08:18:19.415Z,100345.67
2018-12-19T08:20:48.546Z,100351.52
2018-12-19T08:23:17.856Z,100348.28
2018-12-19T08:25:47.361Z,100351.50
2018-12-19T08:28:16.711Z,100354.03
2018-12-19T08:30:48.612Z,100350.36
2018-12-19T08:33:18.171Z,100354.11
2018-12-19T08:35:47.892Z,100352.80
2018-12-19T08:38:17.227Z,100345.92
2018-12-19T08:40:46.671Z,100344.77
2018-12-19T08:43:15.924Z,100342.69
2018-12-19T08:45:45.595Z,100345.59
2018-12-19T08:48:14.872Z,100352.80
2018-12-19T08:50:44.053Z,100351.70
2018-12-19T08:53:13.455Z,100355.75
2018-12-19T08:55:42.889Z,100360.34
2018-12-19T08:58:12.366Z,100362.80
2018-12-19T09:00:41.897Z,100365.98
2018-12-19T09:03:11.372Z,100371.75
2018-12-19T09:05:41.594Z,100374.64
2018-12-19T09:08:11.072Z,100372.33
2018-12-19T09:10:40.569Z,100377.22
2018-12-19T09:13:09.795Z,100365.23
2018-12-19T09:15:43.993Z,100370.64
2018-12-19T09:18:14.323Z,100371.13
2018-12-19T09:20:43.739Z,100382.58
2018-12-19T09:23:12.945Z,100396.58
2018-12-19T09:25:42.164Z,100390.45
2018-12-19T09:28:11.450Z,100393.24
2018-12-19T09:30:41.005Z,100395.64
2018-12-19T09:33:10.395Z,100387.86
2018-12-19T09:35:39.733Z,100387.93
2018-12-19T09:38:08.873Z,100384.45
2018-12-19T09:40:38.208Z,100392.97
2018-12-19T09:43:08.032Z,100389.07
2018-12-19T09:45:38.226Z,100385.59
2018-12-19T09:48:07.647Z,100391.47
2018-12-19T09:50:37.120Z,100402.02
2018-12-19T09:53:06.152Z,100404.45
2018-12-19T09:55:35.456Z,100406.62
2018-12-19T09:58:04.682Z,100402.86
2018-12-19T10:00:33.963Z,100403.98
2018-12-19T10:03:03.197Z,100404.27
2018-12-19T10:05:32.636Z,100403.98
2018-12-19T10:08:01.911Z,100406.91
2018-12-19T10:10:31.126Z,100416.22
2018-12-19T10:13:00.403Z,100414.39
2018-12-19T10:15:29.796Z,100408.88
2018-12-19T10:17:59.115Z,100395.30
2018-12-19T10:20:28.601Z,100397.30
2018-12-19T10:22:57.892Z,100391.06
2018-12-19T10:25:27.528Z,100385.14
2018-12-19T10:27:56.677Z,100387.11
2018-12-19T10:30:26.072Z,100376.11
2018-12-19T10:32:56.904Z,100378.63
2018-12-19T10:35:26.884Z,100374.70
2018-12-19T10:37:56.307Z,100374.07
2018-12-19T10:40:25.508Z,100368.38
2018-12-19T10:42:54.970Z,100368.58
2018-12-19T10:45:24.256Z,100370.81
2018-12-19T10:47:53.419Z,100359.41
2018-12-19T10:50:22.616Z,100359.23
2018-12-19T10:52:51.975Z,100362.72
2018-12-19T10:55:21.273Z,100374.49
2018-12-19T10:57:50.703Z,100353.20
2018-12-19T11:00:24.836Z,100360.94
2018-12-19T11:02:54.126Z,100344.52
2018-12-19T11:05:23.570Z,100347.17
2018-12-19T11:07:53.083Z,100340.86
2018-12-19T11:10:22.500Z,100343.41
2018-12-19T11:12:51.980Z,100332.77
2018-12-19T11:15:21.180Z,100339.13
2018-12-19T11:17:50.646Z,100343.58
2018-12-19T11:20:20.107Z,100348.47
2018-12-19T11:22:50.219Z,100347.55
2018-12-19T11:25:19.532Z,100343.03
2018-12-19T11:27:49.028Z,100344.16
2018-12-19T11:30:18.436Z,100346.68
2018-12-19T11:32:47.795Z,100341.15
2018-12-19T11:35:17.082Z,100341.81
2018-12-19T11:37:46.357Z,100340.20
2018-12-19T11:40:15.919Z,100335.47
2018-12-19T11:42:45.420Z,100336.14
2018-12-19T11:45:14.814Z,100332.39
2018-12-19T11:47:44.190Z,100337.19
2018-12-19T11:50:13.327Z,100331.50
2018-12-19T11:52:42.832Z,100341.55
2018-12-19T11:55:12.114Z,100342.86
2018-12-19T11:57:41.340Z,100339.53
2018-12-19T12:00:11.110Z,100334.20
2018-12-19T12:02:40.456Z,100332.93
2018-12-19T12:05:09.708Z,100323.69
2018-12-19T12:07:39.332Z,100320.35
2018-12-19T12:10:09.632Z,100316.52
2018-12-19T12:12:39.113Z,100307.27
2018-12-19T12:15:08.660Z,100306.00
2018-12-19T12:17:38.292Z,100304.73
2018-12-19T12:20:09.156Z,100303.04
2018-12-19T12:22:38.647Z,100298.97
2018-12-19T12:25:08.257Z,100307.32
2018-12-19T12:27:37.686Z,100300.94
2018-12-19T12:30:07.354Z,100304.41
2018-12-19T12:32:36.922Z,100300.88
2018-12-19T12:35:07.418Z,100289.57
2018-12-19T12:37:36.998Z,100288.55
2018-12-19T12:40:07.231Z,100284.49
2018-12-19T12:42:36.941Z,100271.67
2018-12-19T12:45:06.860Z,100272.22
2018-12-19T12:47:36.711Z,100276.47
2018-12-19T12:50:06.744Z,100278.32
2018-12-19T12:52:36.317Z,100283.12
2018-12-19T12:55:05.922Z,100283.08
2018-12-19T12:57:35.432Z,100279.80
2018-12-19T13:00:06.883Z,100274.31
2018-12-19T13:02:36.531Z,100273.78
2018-12-19T13:05:05.925Z,100266.02
2018-12-19T13:07:35.481Z,100272.58
2018-12-19T13:10:05.542Z,100268.66
2018-12-19T13:12:34.898Z,100262.62
2018-12-19T13:15:04.401Z,100262.28
2018-12-19T13:17:33.900Z,100264.31
2018-12-19T13:20:03.407Z,100258.59
2018-12-19T13:22:32.884Z,100255.41
2018-12-19T13:25:02.350Z,100252.92
2018-12-19T13:27:31.791Z,100251.70
2018-12-19T13:30:01.232Z,100248.00
2018-12-19T13:32:30.667Z,100250.84
2018-12-19T13:35:00.469Z,100254.32
2018-12-19T13:37:30.149Z,100256.34
2018-12-19T13:39:59.639Z,100252.66
2018-12-19T13:42:29.032Z,100257.41
2018-12-19T13:44:58.382Z,100262.12
2018-12-19T13:47:27.949Z,100245.47
2018-12-19T13:49:57.891Z,100248.00
2018-12-19T13:52:27.331Z,100246.03
2018-12-19T13:54:56.891Z,100239.94
2018-12-19T13:57:26.199Z,100236.94
2018-12-19T13:59:55.690Z,100239.58
2018-12-19T14:02:25.410Z,100243.19
2018-12-19T14:04:54.987Z,100224.36
2018-12-19T14:07:24.506Z,100223.12
2018-12-19T14:09:54.225Z,100225.17
2018-12-19T14:12:23.830Z,100224.78
2018-12-19T14:14:53.372Z,100221.53
2018-12-19T14:17:22.888Z,100214.67
2018-12-19T14:19:52.465Z,100209.43
2018-12-19T14:22:22.196Z,100196.05
2018-12-19T14:24:51.484Z,100204.35
2018-12-19T14:27:21.014Z,100199.03
2018-12-19T14:29:50.754Z,100202.56
2018-12-19T14:32:20.375Z,100199.53
2018-12-19T14:34:49.722Z,100195.51
2018-12-19T14:37:19.208Z,100188.09
2018-12-19T14:39:48.811Z,100198.66
2018-12-19T14:42:19.197Z,100211.91
2018-12-19T14:44:49.597Z,100225.53
2018-12-19T14:47:19.728Z,100232.71
2018-12-19T14:49:49.517Z,100236.09
2018-12-19T14:52:19.075Z,100234.90
2018-12-19T14:54:48.592Z,100237.36
2018-12-19T14:57:18.148Z,100236.61
2018-12-19T14:59:47.650Z,100239.72
2018-12-19T15:02:16.926Z,100246.50
2018-12-19T15:04:46.413Z,100240.52
2018-12-19T15:07:16.028Z,100242.72
2018-12-19T15:09:45.717Z,100242.45
2018-12-19T15:12:15.047Z,100240.59
2018-12-19T15:14:44.447Z,100237.33
2018-12-19T15:17:14.059Z,100240.56
2018-12-19T15:19:43.767Z,100248.23
2018-12-19T15:22:13.396Z,100244.74
2018-12-19T15:24:42.839Z,100243.31
2018-12-19T15:27:12.477Z,100238.38
2018-12-19T15:29:41.997Z,100235.20
2018-12-19T15:32:11.596Z,100230.23
2018-12-19T15:34:41.203Z,100225.27
2018-12-19T15:37:10.678Z,100231.60
2018-12-19T15:39:40.129Z,100226.14
2018-12-19T15:42:09.652Z,100228.20
2018-12-19T15:44:39.223Z,100220.17
2018-12-19T15:47:08.738Z,100227.11
2018-12-19T15:49:38.300Z,100236.66
2018-12-19T15:52:07.989Z,100250.78
2018-12-19T15:54:37.425Z,100259.00
2018-12-19T15:57:07.284Z,100267.97
2018-12-19T15:59:37.279Z,100271.75
2018-12-19T16:02:06.968Z,100262.52
2018-12-19T16:04:36.556Z,100270.48
2018-12-19T16:07:06.004Z,100266.34
2018-12-19T16:09:35.915Z,100271.75
2018-12-19T16:12:05.404Z,100258.06
2018-12-19T16:14:34.991Z,100268.64
2018-12-19T16:17:04.526Z,100269.34
2018-12-19T16:19:34.272Z,100268.21
2018-12-19T16:22:04.086Z,100264.19
2018-12-19T16:24:34.129Z,100266.92
2018-12-19T16:27:04.228Z,100265.12
2018-12-19T16:29:33.767Z,100268.04
2018-12-19T16:32:03.614Z,100264.69
2018-12-19T16:34:33.531Z,100269.39
2018-12-19T16:37:03.052Z,100278.21
2018-12-19T16:39:32.454Z,100273.00
2018-12-19T16:42:02.043Z,100262.51
2018-12-19T16:44:31.648Z,100265.41
2018-12-19T16:47:01.294Z,100261.67
2018-12-19T16:49:30.583Z,100259.38
2018-12-19T16:51:59.876Z,100250.67
2018-12-19T16:54:29.304Z,100242.83
2018-12-19T16:56:58.557Z,100248.39
2018-12-19T16:59:27.713Z,100238.50
2018-12-19T17:01:57.086Z,100241.52
2018-12-19T17:04:26.196Z,100238.39
2018-12-19T17:06:55.375Z,100236.21
2018-12-19T17:09:24.460Z,100233.81
2018-12-19T17:11:53.615Z,100230.27
2018-12-19T17:14:23.043Z,100222.27
2018-12-19T17:16:52.355Z,100226.41
2018-12-19T17:19:21.549Z,100236.05
2018-12-19T17:21:50.827Z,100233.42
2018-12-19T17:24:23.291Z,100239.11
2018-12-19T17:26:52.563Z,100232.50
2018-12-19T17:29:21.873Z,100238.77
2018-12-19T17:31:51.135Z,100240.20
2018-12-19T17:34:20.604Z,100233.21
2018-12-19T17:36:49.848Z,100228.64
2018-12-19T17:39:19.292Z,100228.02
2018-12-19T17:41:48.712Z,100240.45
2018-12-19T17:44:18.220Z,100234.05
2018-12-19T17:46:47.671Z,100237.67
2018-12-19T17:49:17.759Z,100228.98
2018-12-19T17:51:47.093Z,100227.19
2018-12-19T17:54:17.537Z,100235.38
2018-12-19T17:56:47.025Z,100239.95
2018-12-19T17:59:16.340Z,100235.50
2018-12-19T18:01:46.019Z,100238.27
2018-12-19T18:04:15.352Z,100234.44
2018-12-19T18:06:44.616Z,100230.19
2018-12-19T18:09:14.350Z,100223.80
2018-12-19T18:11:43.665Z,100218.06
2018-12-19T18:14:13.946Z,100220.03
2018-12-19T18:16:43.387Z,100223.80
2018-12-19T18:19:12.776Z,100225.77
2018-12-19T18:21:42.104Z,100224.72
2018-12-19T18:24:11.620Z,100229.33
2018-12-19T18:26:41.004Z,100217.13
2018-12-19T18:29:10.612Z,100221.83
2018-12-19T18:31:39.758Z,100220.14
2018-12-19T18:34:08.880Z,100219.20
2018-12-19T18:36:38.163Z,100211.96
2018-12-19T18:39:09.490Z,100214.17
2018-12-19T18:41:38.931Z,100218.38
2018-12-19T18:44:08.400Z,100222.86
2018-12-19T18:46:37.765Z,100223.44
2018-12-19T18:49:07.270Z,100217.41
2018-12-19T18:51:36.779Z,100221.38
2018-12-19T18:54:06.156Z,100221.17
2018-12-19T18:56:35.557Z,100214.28
2018-12-19T18:59:04.880Z,100212.61
2018-12-19T19:01:34.157Z,100215.00
2018-12-19T19:04:03.646Z,100219.10
2018-12-19T19:06:32.755Z,100220.45
2018-12-19T19:09:02.585Z,100215.98
2018-12-19T19:11:31.947Z,100210.78
2018-12-19T19:14:01.263Z,100205.33
2018-12-19T19:16:30.613Z,100213.42
2018-12-19T19:18:59.945Z,100214.52
2018-12-19T19:21:29.456Z,100202.59
2018-12-19T19:23:58.786Z,100209.09
2018-12-19T19:26:27.983Z,100221.14
2018-12-19T19:28:57.276Z,100224.41
2018-12-19T19:31:26.728Z,100214.64
2018-12-19T19:33:56.129Z,100209.81
2018-12-19T19:36:25.480Z,100207.52
2018-12-19T19:38:54.798Z,100218.27
2018-12-19T19:41:24.223Z,100213.69
2018-12-19T19:43:53.538Z,100211.50
2018-12-19T19:46:22.908Z,100210.06
2018-12-19T19:48:52.423Z,100214.77
2018-12-19T19:51:21.868Z,100213.80
2018-12-19T19:53:51.176Z,100217.89
2018-12-19T19:56:20.616Z,100205.73
2018-12-19T19:58:49.876Z,100209.09
2018-12-19T20:01:19.455Z,100202.95
2018-12-19T20:03:48.835Z,100197.52
2018-12-19T20:06:18.410Z,100202.33
2018-12-19T20:08:47.989Z,100202.33
2018-12-19T20:11:17.659Z,100197.77
2018-12-19T20:13:47.120Z,100203.90
2018-12-19T20:16:16.307Z,100196.30
2018-12-19T20:18:45.763Z,100195.23
2018-12-19T20:21:15.203Z,100201.34
2018-12-19T20:23:44.511Z,100200.98
2018-12-19T20:26:13.927Z,100196.98
2018-12-19T20:28:43.482Z,100190.80
2018-12-19T20:31:12.772Z,100196.09
2018-12-19T20:33:42.360Z,100182.20
2018-12-19T20:36:11.512Z,100181.94
2018-12-19T20:38:40.845Z,100183.88
2018-12-19T20:41:10.229Z,100175.46
2018-12-19T20:43:40.132Z,100168.73
2018-12-19T20:46:09.623Z,100174.52
2018-12-19T20:48:38.937Z,100171.77
2018-12-19T20:51:08.348Z,100184.42
2018-12-19T20:53:37.939Z,100178.02
2018-12-19T20:56:07.375Z,100179.44
2018-12-19T20:58:36.838Z,100177.62
2018-12-19T21:01:05.960Z,100171.99
2018-12-19T21:03:35.296Z,100180.08
2018-12-19T21:06:04.579Z,100183.09
2018-12-19T21:08:33.993Z,100172.83
2018-12-19T21:11:03.315Z,100186.21
2018-12-19T21:13:32.574Z,100180.28
2018-12-19T21:16:01.892Z,100179.44
2018-12-19T21:18:36.278Z,100168.23
2018-12-19T21:21:05.613Z,100169.72
2018-12-19T21:23:34.985Z,100169.94
2018-12-19T21:26:04.417Z,100157.20
2018-12-19T21:28:33.667Z,100166.39
2018-12-19T21:31:03.147Z,100158.44
2018-12-19T21:33:32.517Z,100153.25
2018-12-19T21:36:01.754Z,100159.17
2018-12-19T21:38:30.940Z,100165.11
2018-12-19T21:41:00.205Z,100161.25
2018-12-19T21:43:29.878Z,100165.83
2018-12-19T21:45:59.061Z,100165.45
2018-12-19T21:48:28.698Z,100163.73
2018-12-19T21:50:57.928Z,100160.00
2018-12-19T21:53:27.166Z,100160.12
2018-12-19T21:55:56.550Z,100164.14
2018-12-19T21:58:26.164Z,100158.45
2018-12-19T22:00:55.541Z,100163.59
2018-12-19T22:03:25.002Z,100159.91
2018-12-19T22:05:54.278Z,100152.75
2018-12-19T22:08:23.499Z,100153.80
2018-12-19T22:10:53.086Z,100159.08
2018-12-19T22:13:22.510Z,100159.42
2018-12-19T22:15:51.767Z,100160.52
2018-12-19T22:18:26.532Z,100169.91
2018-12-19T22:20:55.915Z,100162.08
2018-12-19T22:23:25.553Z,100162.44
2018-12-19T22:25:54.820Z,100156.16
2018-12-19T22:28:24.027Z,100157.38
2018-12-19T22:30:53.304Z,100162.94
2018-12-19T22:33:22.975Z,100159.54
2018-12-19T22:35:52.659Z,100166.12
2018-12-19T22:38:22.268Z,100170.77
2018-12-19T22:40:52.079Z,100169.30
2018-12-19T22:43:21.920Z,100155.16
2018-12-19T22:45:51.325Z,100163.38
2018-12-19T22:48:20.963Z,100165.06
2018-12-19T22:50:50.629Z,100166.23
2018-12-19T22:53:20.102Z,100163.23
2018-12-19T22:55:50.709Z,100172.41
2018-12-19T22:58:20.289Z,100177.84
2018-12-19T23:00:56.097Z,100181.10
2018-12-19T23:03:30.659Z,100173.62
2018-12-19T23:06:00.474Z,100166.30
2018-12-19T23:08:30.049Z,100168.66
2018-12-19T23:10:59.974Z,100169.66
2018-12-19T23:13:29.420Z,100164.92
2018-12-19T23:15:58.963Z,100170.98
2018-12-19T23:18:28.654Z,100166.50
2018-12-19T23:20:58.364Z,100176.03
2018-12-19T23:23:27.791Z,100169.17
2018-12-19T23:25:56.988Z,100165.08
2018-12-19T23:28:26.180Z,100159.16
2018-12-19T23:30:55.664Z,100161.20
2018-12-19T23:33:25.207Z,100162.67
2018-12-19T23:35:54.443Z,100156.77
2018-12-19T23:38:23.663Z,100156.52
2018-12-19T23:40:52.915Z,100158.94
2018-12-19T23:43:22.349Z,100156.88
2018-12-19T23:45:51.646Z,100162.28
2018-12-19T23:48:21.028Z,100163.23
2018-12-19T23:50:50.295Z,100161.69
2018-12-19T23:53:19.544Z,100148.09
2018-12-19T23:55:48.789Z,100143.18
2018-12-19T23:58:18.017Z,100134.47
